sensor_id;sensor_type;location;lat;lon;timestamp;pressure;altitude;pressure_sealevel;temperature;humidity
6224;BME280;3145;42.726;23.342;2022-07-18T00:00:41;96083.09;;;19.15;56.27
6224;BME280;3145;42.726;23.342;2022-07-18T00:03:07;96069.53;;;19.10;55.65
6224;BME280;3145;42.726;23.342;2022-07-18T00:05:34;96079.88;;;19.00;55.01
6224;BME280;3145;42.726;23.342;2022-07-18T00:08:01;96060.59;;;18.79;55.65
6224;BME280;3145;42.726;23.342;2022-07-18T00:10:27;96078.03;;;18.94;55.94
6224;BME280;3145;42.726;23.342;2022-07-18T00:12:56;96078.69;;;18.96;56.22
6224;BME280;3145;42.726;23.342;2022-07-18T00:15:23;96076.59;;;18.98;56.68
6224;BME280;3145;42.726;23.342;2022-07-18T00:17:49;96076.19;;;18.95;56.78
6224;BME280;3145;42.726;23.342;2022-07-18T00:20:16;96078.03;;;18.94;56.99
6224;BME280;3145;42.726;23.342;2022-07-18T00:22:43;96086.09;;;18.94;56.63
6224;BME280;3145;42.726;23.342;2022-07-18T00:25:09;96074.13;;;18.97;56.48
6224;BME280;3145;42.726;23.342;2022-07-18T00:27:36;96073.72;;;18.93;56.51
6224;BME280;3145;42.726;23.342;2022-07-18T00:30:05;96075.38;;;18.94;55.99
6224;BME280;3145;42.726;23.342;2022-07-18T00:32:33;96078.03;;;18.94;55.58
6224;BME280;3145;42.726;23.342;2022-07-18T00:35:00;96071.06;;;18.93;55.54
6224;BME280;3145;42.726;23.342;2022-07-18T00:37:27;96069.22;;;18.87;54.85
6224;BME280;3145;42.726;23.342;2022-07-18T00:39:53;96075.84;;;18.78;55.18
6224;BME280;3145;42.726;23.342;2022-07-18T00:42:21;96067.22;;;18.76;55.15
6224;BME280;3145;42.726;23.342;2022-07-18T00:44:52;96052.41;;;18.61;55.02
6224;BME280;3145;42.726;23.342;2022-07-18T00:47:21;96065.19;;;18.65;56.03
6224;BME280;3145;42.726;23.342;2022-07-18T00:49:49;96029.00;;;18.43;55.04
6224;BME280;3145;42.726;23.342;2022-07-18T00:52:16;96032.31;;;18.39;55.48
6224;BME280;3145;42.726;23.342;2022-07-18T00:54:43;96072.81;;;18.55;55.61
6224;BME280;3145;42.726;23.342;2022-07-18T00:57:09;96078.38;;;18.54;55.40
6224;BME280;3145;42.726;23.342;2022-07-18T00:59:37;96077.97;;;18.50;55.34
6224;BME280;3145;42.726;23.342;2022-07-18T01:02:23;96081.69;;;18.49;55.54
6224;BME280;3145;42.726;23.342;2022-07-18T01:04:51;96085.81;;;18.45;55.75
6224;BME280;3145;42.726;23.342;2022-07-18T01:07:18;96076.75;;;18.33;55.43
6224;BME280;3145;42.726;23.342;2022-07-18T01:09:45;96080.06;;;18.22;55.15
6224;BME280;3145;42.726;23.342;2022-07-18T01:12:12;96079.88;;;18.17;54.96
6224;BME280;3145;42.726;23.342;2022-07-18T01:14:39;96044.28;;;17.97;55.21
6224;BME280;3145;42.726;23.342;2022-07-18T01:17:14;96051.25;;;18.04;54.29
6224;BME280;3145;42.726;23.342;2022-07-18T01:19:42;95982.19;;;17.56;55.14
6224;BME280;3145;42.726;23.342;2022-07-18T01:22:11;96078.44;;;18.08;54.71
6224;BME280;3145;42.726;23.342;2022-07-18T01:24:38;96066.09;;;18.00;54.23
6224;BME280;3145;42.726;23.342;2022-07-18T01:27:06;96066.09;;;18.00;53.87
6224;BME280;3145;42.726;23.342;2022-07-18T01:29:33;96067.72;;;17.95;54.07
6224;BME280;3145;42.726;23.342;2022-07-18T01:32:03;96074.13;;;17.94;53.57
6224;BME280;3145;42.726;23.342;2022-07-18T01:34:30;96076.38;;;17.97;53.90
6224;BME280;3145;42.726;23.342;2022-07-18T01:36:57;96068.38;;;17.90;51.86
6224;BME280;3145;42.726;23.342;2022-07-18T01:39:25;96070.41;;;17.82;52.06
6224;BME280;3145;42.726;23.342;2022-07-18T01:41:55;96068.53;;;17.76;52.41
6224;BME280;3145;42.726;23.342;2022-07-18T01:44:22;96067.75;;;17.75;52.52
6224;BME280;3145;42.726;23.342;2022-07-18T01:46:49;96068.53;;;17.76;52.71
6224;BME280;3145;42.726;23.342;2022-07-18T01:49:16;96081.72;;;17.71;50.97
6224;BME280;3145;42.726;23.342;2022-07-18T01:51:44;96062.59;;;17.61;52.32
6224;BME280;3145;42.726;23.342;2022-07-18T01:54:12;96055.81;;;17.65;53.53
6224;BME280;3145;42.726;23.342;2022-07-18T01:56:40;96060.75;;;17.81;53.51
6224;BME280;3145;42.726;23.342;2022-07-18T01:59:07;96061.56;;;17.75;53.66
6224;BME280;3145;42.726;23.342;2022-07-18T02:01:34;96065.28;;;17.67;53.63
6224;BME280;3145;42.726;23.342;2022-07-18T02:04:00;96062.41;;;17.62;53.79
6224;BME280;3145;42.726;23.342;2022-07-18T02:06:27;95965.28;;;16.97;53.45
6224;BME280;3145;42.726;23.342;2022-07-18T02:08:54;96067.31;;;17.59;53.42
6224;BME280;3145;42.726;23.342;2022-07-18T02:11:21;96066.91;;;17.55;53.42
6224;BME280;3145;42.726;23.342;2022-07-18T02:13:49;96047.72;;;17.39;53.51
6224;BME280;3145;42.726;23.342;2022-07-18T02:16:16;96071.19;;;17.43;53.67
6224;BME280;3145;42.726;23.342;2022-07-18T02:18:43;96063.09;;;17.24;53.80
6224;BME280;3145;42.726;23.342;2022-07-18T02:21:10;96074.22;;;17.21;54.28
6224;BME280;3145;42.726;23.342;2022-07-18T02:23:39;96072.50;;;17.00;55.37
6224;BME280;3145;42.726;23.342;2022-07-18T02:26:06;95952.25;;;16.21;56.34
6224;BME280;3145;42.726;23.342;2022-07-18T02:28:33;96033.09;;;16.55;57.29
6224;BME280;3145;42.726;23.342;2022-07-18T02:31:01;96079.19;;;16.77;57.98
6224;BME280;3145;42.726;23.342;2022-07-18T02:33:28;96090.22;;;16.67;58.29
6224;BME280;3145;42.726;23.342;2022-07-18T02:35:55;96092.66;;;16.62;59.32
6224;BME280;3145;42.726;23.342;2022-07-18T02:38:22;96044.44;;;16.30;59.49
6224;BME280;3145;42.726;23.342;2022-07-18T02:40:49;96095.66;;;16.53;59.49
6224;BME280;3145;42.726;23.342;2022-07-18T02:43:16;96097.25;;;16.41;60.29
6224;BME280;3145;42.726;23.342;2022-07-18T02:45:42;96102.50;;;16.34;60.95
6224;BME280;3145;42.726;23.342;2022-07-18T02:48:10;96099.59;;;16.29;60.87
6224;BME280;3145;42.726;23.342;2022-07-18T02:50:37;96103.88;;;16.24;60.88
6224;BME280;3145;42.726;23.342;2022-07-18T02:53:04;96106.91;;;16.21;61.08
6224;BME280;3145;42.726;23.342;2022-07-18T02:55:31;96106.31;;;16.19;60.57
6224;BME280;3145;42.726;23.342;2022-07-18T02:57:57;96115.56;;;16.23;60.30
6224;BME280;3145;42.726;23.342;2022-07-18T03:00:24;96087.94;;;16.03;59.73
6224;BME280;3145;42.726;23.342;2022-07-18T03:02:51;96109.75;;;16.13;60.85
6224;BME280;3145;42.726;23.342;2022-07-18T03:05:19;96111.28;;;16.01;59.56
6224;BME280;3145;42.726;23.342;2022-07-18T03:07:46;96115.25;;;15.84;59.69
6224;BME280;3145;42.726;23.342;2022-07-18T03:10:12;96117.22;;;15.75;61.20
6224;BME280;3145;42.726;23.342;2022-07-18T03:12:40;96119.69;;;15.77;61.98
6224;BME280;3145;42.726;23.342;2022-07-18T03:15:07;96120.53;;;15.77;62.23
6224;BME280;3145;42.726;23.342;2022-07-18T03:17:34;96113.63;;;15.83;62.91
6224;BME280;3145;42.726;23.342;2022-07-18T03:20:02;96112.03;;;15.88;62.97
6224;BME280;3145;42.726;23.342;2022-07-18T03:22:30;96114.50;;;15.90;62.84
6224;BME280;3145;42.726;23.342;2022-07-18T03:24:58;96123.13;;;15.92;62.68
6224;BME280;3145;42.726;23.342;2022-07-18T03:27:25;96107.16;;;15.98;61.75
6224;BME280;3145;42.726;23.342;2022-07-18T03:29:52;96113.66;;;16.17;61.49
6224;BME280;3145;42.726;23.342;2022-07-18T03:32:18;96082.50;;;16.17;61.10
6224;BME280;3145;42.726;23.342;2022-07-18T03:34:45;96118.72;;;16.60;59.36
6224;BME280;3145;42.726;23.342;2022-07-18T03:37:12;96112.88;;;16.78;57.25
6224;BME280;3145;42.726;23.342;2022-07-18T03:39:40;96123.72;;;16.70;55.09
6224;BME280;3145;42.726;23.342;2022-07-18T03:42:07;96114.38;;;16.93;57.72
6224;BME280;3145;42.726;23.342;2022-07-18T03:44:33;96099.69;;;17.17;56.82
6224;BME280;3145;42.726;23.342;2022-07-18T03:47:00;96116.66;;;17.50;55.04
6224;BME280;3145;42.726;23.342;2022-07-18T03:49:27;96123.06;;;17.81;52.85
6224;BME280;3145;42.726;23.342;2022-07-18T03:51:54;96126.16;;;17.85;51.95
6224;BME280;3145;42.726;23.342;2022-07-18T03:54:21;96117.72;;;18.14;52.32
6224;BME280;3145;42.726;23.342;2022-07-18T03:56:49;96128.22;;;18.42;50.19
6224;BME280;3145;42.726;23.342;2022-07-18T03:59:16;96119.00;;;18.44;50.95
6224;BME280;3145;42.726;23.342;2022-07-18T04:01:43;96132.72;;;18.80;49.96
6224;BME280;3145;42.726;23.342;2022-07-18T04:04:09;96133.63;;;19.12;50.33
6224;BME280;3145;42.726;23.342;2022-07-18T04:06:36;96135.63;;;19.36;47.87
6224;BME280;3145;42.726;23.342;2022-07-18T04:09:03;96130.50;;;19.65;47.90
6224;BME280;3145;42.726;23.342;2022-07-18T04:11:30;96128.88;;;19.95;46.53
6224;BME280;3145;42.726;23.342;2022-07-18T04:13:58;96109.53;;;20.18;46.21
6224;BME280;3145;42.726;23.342;2022-07-18T04:16:25;96135.84;;;20.52;44.92
6224;BME280;3145;42.726;23.342;2022-07-18T04:18:52;96126.72;;;20.77;43.68
6224;BME280;3145;42.726;23.342;2022-07-18T04:21:23;96125.44;;;21.04;42.75
6224;BME280;3145;42.726;23.342;2022-07-18T04:23:49;96113.25;;;21.20;42.66
6224;BME280;3145;42.726;23.342;2022-07-18T04:26:16;96124.31;;;21.59;42.01
6224;BME280;3145;42.726;23.342;2022-07-18T04:28:43;96118.59;;;21.85;41.20
6224;BME280;3145;42.726;23.342;2022-07-18T04:31:11;96111.38;;;21.98;40.08
6224;BME280;3145;42.726;23.342;2022-07-18T04:33:38;96114.59;;;22.18;40.02
6224;BME280;3145;42.726;23.342;2022-07-18T04:36:05;96114.03;;;22.39;39.19
6224;BME280;3145;42.726;23.342;2022-07-18T04:38:32;96110.56;;;22.50;39.06
6224;BME280;3145;42.726;23.342;2022-07-18T04:41:02;96117.94;;;22.66;39.11
6224;BME280;3145;42.726;23.342;2022-07-18T04:43:29;96125.78;;;22.56;38.65
6224;BME280;3145;42.726;23.342;2022-07-18T04:45:56;96090.75;;;22.67;38.58
6224;BME280;3145;42.726;23.342;2022-07-18T04:48:24;96116.41;;;22.70;37.30
6224;BME280;3145;42.726;23.342;2022-07-18T04:50:51;96105.84;;;22.80;36.83
6224;BME280;3145;42.726;23.342;2022-07-18T04:53:17;96108.47;;;23.14;38.02
6224;BME280;3145;42.726;23.342;2022-07-18T04:55:44;96109.59;;;23.02;36.47
6224;BME280;3145;42.726;23.342;2022-07-18T04:58:11;96119.19;;;22.98;37.87
6224;BME280;3145;42.726;23.342;2022-07-18T05:00:38;96106.28;;;23.11;36.82
6224;BME280;3145;42.726;23.342;2022-07-18T05:03:04;96113.31;;;23.01;36.69
6224;BME280;3145;42.726;23.342;2022-07-18T05:05:33;96116.97;;;22.72;37.67
6224;BME280;3145;42.726;23.342;2022-07-18T05:07:59;96121.25;;;23.30;37.74
6224;BME280;3145;42.726;23.342;2022-07-18T05:10:26;96116.47;;;23.60;35.80
6224;BME280;3145;42.726;23.342;2022-07-18T05:12:53;96123.00;;;24.04;35.96
6224;BME280;3145;42.726;23.342;2022-07-18T05:15:23;96122.56;;;24.40;34.91
6224;BME280;3145;42.726;23.342;2022-07-18T05:17:50;96125.44;;;24.66;34.40
6224;BME280;3145;42.726;23.342;2022-07-18T05:20:18;96119.97;;;24.99;33.97
6224;BME280;3145;42.726;23.342;2022-07-18T05:22:47;96079.97;;;25.01;34.11
6224;BME280;3145;42.726;23.342;2022-07-18T05:25:14;96116.66;;;25.52;33.62
6224;BME280;3145;42.726;23.342;2022-07-18T05:27:41;96121.34;;;25.83;33.57
6224;BME280;3145;42.726;23.342;2022-07-18T05:30:11;96112.75;;;25.91;32.82
6224;BME280;3145;42.726;23.342;2022-07-18T05:32:38;96117.38;;;26.17;33.09
6224;BME280;3145;42.726;23.342;2022-07-18T05:35:06;96126.66;;;26.26;31.36
6224;BME280;3145;42.726;23.342;2022-07-18T05:37:34;96126.56;;;26.16;32.32
6224;BME280;3145;42.726;23.342;2022-07-18T05:40:06;96128.78;;;26.51;31.58
6224;BME280;3145;42.726;23.342;2022-07-18T05:42:33;96119.44;;;26.63;31.46
6224;BME280;3145;42.726;23.342;2022-07-18T05:45:00;96127.16;;;26.81;31.26
6224;BME280;3145;42.726;23.342;2022-07-18T05:47:27;96125.66;;;27.00;30.91
6224;BME280;3145;42.726;23.342;2022-07-18T05:49:53;96122.03;;;27.26;30.05
6224;BME280;3145;42.726;23.342;2022-07-18T05:52:20;96127.31;;;27.53;29.41
6224;BME280;3145;42.726;23.342;2022-07-18T05:54:47;96132.59;;;27.79;28.90
6224;BME280;3145;42.726;23.342;2022-07-18T05:57:15;96126.16;;;28.05;29.26
6224;BME280;3145;42.726;23.342;2022-07-18T05:59:45;96126.19;;;28.20;28.72
6224;BME280;3145;42.726;23.342;2022-07-18T06:02:12;96131.13;;;28.33;28.96
6224;BME280;3145;42.726;23.342;2022-07-18T06:04:39;96121.88;;;28.44;28.90
6224;BME280;3145;42.726;23.342;2022-07-18T06:07:06;96129.53;;;28.57;27.95
6224;BME280;3145;42.726;23.342;2022-07-18T06:09:33;96127.34;;;28.69;27.92
6224;BME280;3145;42.726;23.342;2022-07-18T06:12:00;96126.78;;;28.72;27.08
6224;BME280;3145;42.726;23.342;2022-07-18T06:14:29;96105.53;;;28.14;27.06
6224;BME280;3145;42.726;23.342;2022-07-18T06:16:57;96128.16;;;28.50;27.39
6224;BME280;3145;42.726;23.342;2022-07-18T06:19:24;96135.50;;;28.74;27.56
6224;BME280;3145;42.726;23.342;2022-07-18T06:21:51;96120.53;;;28.62;27.92
6224;BME280;3145;42.726;23.342;2022-07-18T06:24:18;96115.38;;;28.65;27.11
6224;BME280;3145;42.726;23.342;2022-07-18T06:26:45;96112.09;;;28.73;26.80
6224;BME280;3145;42.726;23.342;2022-07-18T06:29:11;96124.56;;;28.99;27.50
6224;BME280;3145;42.726;23.342;2022-07-18T06:31:39;96121.31;;;29.17;26.48
6224;BME280;3145;42.726;23.342;2022-07-18T06:34:06;96121.31;;;29.12;26.05
6224;BME280;3145;42.726;23.342;2022-07-18T06:36:33;96120.19;;;29.28;26.07
6224;BME280;3145;42.726;23.342;2022-07-18T06:39:00;96111.41;;;29.46;24.22
6224;BME280;3145;42.726;23.342;2022-07-18T06:41:27;96095.31;;;29.50;24.68
6224;BME280;3145;42.726;23.342;2022-07-18T06:43:54;96105.94;;;29.62;24.84
6224;BME280;3145;42.726;23.342;2022-07-18T06:46:21;96107.88;;;29.41;24.72
6224;BME280;3145;42.726;23.342;2022-07-18T06:48:49;96105.41;;;29.49;25.45
6224;BME280;3145;42.726;23.342;2022-07-18T06:51:15;96105.97;;;29.46;25.14
6224;BME280;3145;42.726;23.342;2022-07-18T06:53:42;96105.34;;;29.70;24.69
6224;BME280;3145;42.726;23.342;2022-07-18T06:56:09;96090.28;;;29.82;24.98
6224;BME280;3145;42.726;23.342;2022-07-18T06:58:36;96100.75;;;30.14;24.64
6224;BME280;3145;42.726;23.342;2022-07-18T07:01:02;96088.75;;;30.10;22.48
6224;BME280;3145;42.726;23.342;2022-07-18T07:03:29;96093.19;;;29.96;22.84
6224;BME280;3145;42.726;23.342;2022-07-18T07:05:58;96074.78;;;29.78;23.42
6224;BME280;3145;42.726;23.342;2022-07-18T07:08:24;96084.72;;;30.02;22.82
6224;BME280;3145;42.726;23.342;2022-07-18T07:10:51;96083.31;;;30.10;22.71
6224;BME280;3145;42.726;23.342;2022-07-18T07:13:18;96099.00;;;30.33;22.34
6224;BME280;3145;42.726;23.342;2022-07-18T07:15:44;96098.34;;;30.46;22.10
6224;BME280;3145;42.726;23.342;2022-07-18T07:18:11;96096.94;;;30.15;20.65
6224;BME280;3145;42.726;23.342;2022-07-18T07:20:38;96086.69;;;29.92;22.12
6224;BME280;3145;42.726;23.342;2022-07-18T07:23:06;96082.91;;;29.83;22.48
6224;BME280;3145;42.726;23.342;2022-07-18T07:25:35;96096.41;;;30.08;21.92
6224;BME280;3145;42.726;23.342;2022-07-18T07:28:02;96097.72;;;30.20;21.39
6224;BME280;3145;42.726;23.342;2022-07-18T07:30:29;96097.06;;;30.38;21.41
6224;BME280;3145;42.726;23.342;2022-07-18T07:32:56;96096.28;;;30.33;21.91
6224;BME280;3145;42.726;23.342;2022-07-18T07:35:23;96070.16;;;30.22;21.56
6224;BME280;3145;42.726;23.342;2022-07-18T07:37:52;96089.16;;;30.32;21.32
6224;BME280;3145;42.726;23.342;2022-07-18T07:40:21;96065.06;;;30.05;20.55
6224;BME280;3145;42.726;23.342;2022-07-18T07:42:48;96093.91;;;29.67;20.74
6224;BME280;3145;42.726;23.342;2022-07-18T07:45:16;96106.09;;;28.86;21.08
6224;BME280;3145;42.726;23.342;2022-07-18T07:47:43;96092.13;;;29.28;22.07
6224;BME280;3145;42.726;23.342;2022-07-18T07:50:11;96086.31;;;29.65;21.31
6224;BME280;3145;42.726;23.342;2022-07-18T07:52:38;96095.44;;;29.89;21.46
6224;BME280;3145;42.726;23.342;2022-07-18T07:55:05;96105.09;;;30.20;21.19
6224;BME280;3145;42.726;23.342;2022-07-18T07:57:34;96081.63;;;30.19;19.24
6224;BME280;3145;42.726;23.342;2022-07-18T08:00:03;96089.88;;;30.04;20.75
6224;BME280;3145;42.726;23.342;2022-07-18T08:02:31;96076.44;;;30.22;20.82
6224;BME280;3145;42.726;23.342;2022-07-18T08:04:58;96096.06;;;30.58;19.83
6224;BME280;3145;42.726;23.342;2022-07-18T08:07:24;96095.50;;;30.61;18.23
6224;BME280;3145;42.726;23.342;2022-07-18T08:09:51;96089.63;;;29.46;21.19
6224;BME280;3145;42.726;23.342;2022-07-18T08:12:18;96070.66;;;29.21;21.21
6224;BME280;3145;42.726;23.342;2022-07-18T08:14:46;96085.88;;;29.22;21.67
6224;BME280;3145;42.726;23.342;2022-07-18T08:17:13;96080.91;;;29.39;21.50
6224;BME280;3145;42.726;23.342;2022-07-18T08:19:39;95996.06;;;28.92;20.99
6224;BME280;3145;42.726;23.342;2022-07-18T08:22:06;96100.63;;;28.96;20.41
6224;BME280;3145;42.726;23.342;2022-07-18T08:24:33;96081.47;;;27.71;22.36
6224;BME280;3145;42.726;23.342;2022-07-18T08:26:59;96096.78;;;28.17;21.96
6224;BME280;3145;42.726;23.342;2022-07-18T08:29:26;96090.00;;;28.00;23.04
6224;BME280;3145;42.726;23.342;2022-07-18T08:31:54;96091.91;;;28.19;24.30
6224;BME280;3145;42.726;23.342;2022-07-18T08:34:21;96089.38;;;27.16;23.45
6224;BME280;3145;42.726;23.342;2022-07-18T08:36:47;96082.72;;;26.92;24.47
6224;BME280;3145;42.726;23.342;2022-07-18T08:39:14;96085.50;;;27.02;23.61
6224;BME280;3145;42.726;23.342;2022-07-18T08:41:43;96089.50;;;26.90;24.01
6224;BME280;3145;42.726;23.342;2022-07-18T08:44:12;96083.63;;;26.66;23.50
6224;BME280;3145;42.726;23.342;2022-07-18T08:46:40;96080.66;;;26.68;24.02
6224;BME280;3145;42.726;23.342;2022-07-18T08:49:11;96079.84;;;27.14;26.07
6224;BME280;3145;42.726;23.342;2022-07-18T08:51:40;96008.59;;;26.87;23.26
6224;BME280;3145;42.726;23.342;2022-07-18T08:54:08;96077.78;;;27.36;25.34
6224;BME280;3145;42.726;23.342;2022-07-18T08:56:35;96058.13;;;27.80;26.06
6224;BME280;3145;42.726;23.342;2022-07-18T08:59:03;96076.78;;;26.95;25.46
6224;BME280;3145;42.726;23.342;2022-07-18T09:01:30;96083.34;;;27.09;25.84
6224;BME280;3145;42.726;23.342;2022-07-18T09:03:57;96077.13;;;27.80;26.43
6224;BME280;3145;42.726;23.342;2022-07-18T09:06:47;96075.97;;;27.51;25.71
6224;BME280;3145;42.726;23.342;2022-07-18T09:09:15;96070.97;;;27.23;27.08
6224;BME280;3145;42.726;23.342;2022-07-18T09:11:52;96081.34;;;27.41;26.26
6224;BME280;3145;42.726;23.342;2022-07-18T09:14:30;96077.06;;;27.50;26.58
6224;BME280;3145;42.726;23.342;2022-07-18T09:17:05;95913.78;;;26.60;25.64
6224;BME280;3145;42.726;23.342;2022-07-18T09:19:32;96057.00;;;27.76;25.43
6224;BME280;3145;42.726;23.342;2022-07-18T09:22:18;96072.91;;;28.59;25.96
6224;BME280;3145;42.726;23.342;2022-07-18T09:24:57;96080.22;;;28.14;25.31
6224;BME280;3145;42.726;23.342;2022-07-18T09:27:29;96063.13;;;28.43;25.67
6224;BME280;3145;42.726;23.342;2022-07-18T09:30:18;96083.16;;;27.97;25.02
6224;BME280;3145;42.726;23.342;2022-07-18T09:32:47;96070.97;;;27.23;26.60
6224;BME280;3145;42.726;23.342;2022-07-18T09:35:18;96055.44;;;27.19;25.43
6224;BME280;3145;42.726;23.342;2022-07-18T09:37:58;96066.53;;;27.79;27.37
6224;BME280;3145;42.726;23.342;2022-07-18T09:40:27;96074.53;;;28.35;27.24
6224;BME280;3145;42.726;23.342;2022-07-18T09:42:56;96063.94;;;28.54;25.61
6224;BME280;3145;42.726;23.342;2022-07-18T09:45:24;96055.13;;;27.77;26.62
6224;BME280;3145;42.726;23.342;2022-07-18T09:47:54;96069.88;;;27.24;26.64
6224;BME280;3145;42.726;23.342;2022-07-18T09:50:30;96033.69;;;26.62;28.11
6224;BME280;3145;42.726;23.342;2022-07-18T09:53:12;96064.31;;;27.04;27.21
6224;BME280;3145;42.726;23.342;2022-07-18T09:55:47;96043.38;;;27.51;28.80
6224;BME280;3145;42.726;23.342;2022-07-18T09:58:16;96061.44;;;28.17;27.48
6224;BME280;3145;42.726;23.342;2022-07-18T10:00:44;96068.00;;;28.21;25.81
6224;BME280;3145;42.726;23.342;2022-07-18T10:03:11;96069.25;;;27.74;26.18
6224;BME280;3145;42.726;23.342;2022-07-18T10:05:39;96061.41;;;27.82;27.60
6224;BME280;3145;42.726;23.342;2022-07-18T10:08:09;96057.09;;;27.96;26.27
6224;BME280;3145;42.726;23.342;2022-07-18T10:10:37;96031.19;;;27.64;26.11
6224;BME280;3145;42.726;23.342;2022-07-18T10:13:05;96046.78;;;28.23;26.34
6224;BME280;3145;42.726;23.342;2022-07-18T10:15:34;96041.09;;;28.60;26.17
6224;BME280;3145;42.726;23.342;2022-07-18T10:18:02;96038.06;;;28.11;27.07
6224;BME280;3145;42.726;23.342;2022-07-18T10:20:34;96028.56;;;28.24;26.84
6224;BME280;3145;42.726;23.342;2022-07-18T10:23:10;96031.56;;;28.37;26.14
6224;BME280;3145;42.726;23.342;2022-07-18T10:25:37;96036.44;;;27.90;26.55
6224;BME280;3145;42.726;23.342;2022-07-18T10:28:09;96016.63;;;27.18;27.11
6224;BME280;3145;42.726;23.342;2022-07-18T10:30:40;95936.88;;;26.68;26.95
6224;BME280;3145;42.726;23.342;2022-07-18T10:33:36;96027.63;;;26.92;26.90
6224;BME280;3145;42.726;23.342;2022-07-18T10:36:06;96029.31;;;27.03;26.28
6224;BME280;3145;42.726;23.342;2022-07-18T10:38:35;96031.50;;;27.11;27.82
6224;BME280;3145;42.726;23.342;2022-07-18T10:41:07;96027.81;;;26.75;27.66
6224;BME280;3145;42.726;23.342;2022-07-18T10:43:37;96006.16;;;26.85;27.23
6224;BME280;3145;42.726;23.342;2022-07-18T10:46:05;96012.22;;;27.02;28.37
6224;BME280;3145;42.726;23.342;2022-07-18T10:48:56;95969.84;;;26.96;26.92
6224;BME280;3145;42.726;23.342;2022-07-18T10:51:50;96014.28;;;27.37;27.71
6224;BME280;3145;42.726;23.342;2022-07-18T10:54:18;96017.00;;;27.37;27.87
6224;BME280;3145;42.726;23.342;2022-07-18T10:57:08;96001.84;;;27.56;27.63
6224;BME280;3145;42.726;23.342;2022-07-18T10:59:37;96009.72;;;27.77;25.86
6224;BME280;3145;42.726;23.342;2022-07-18T11:02:06;95979.91;;;28.02;26.26
6224;BME280;3145;42.726;23.342;2022-07-18T11:04:38;96012.50;;;28.27;25.03
6224;BME280;3145;42.726;23.342;2022-07-18T11:07:13;95979.53;;;27.59;26.92
6224;BME280;3145;42.726;23.342;2022-07-18T11:09:43;96013.84;;;27.90;25.61
6224;BME280;3145;42.726;23.342;2022-07-18T11:12:27;95940.69;;;27.48;24.19
6224;BME280;3145;42.726;23.342;2022-07-18T11:15:06;96003.53;;;28.57;25.30
6224;BME280;3145;42.726;23.342;2022-07-18T11:17:56;96005.34;;;29.01;24.85
6224;BME280;3145;42.726;23.342;2022-07-18T11:20:36;95986.56;;;29.00;23.23
6224;BME280;3145;42.726;23.342;2022-07-18T11:23:04;96008.16;;;28.31;24.63
6224;BME280;3145;42.726;23.342;2022-07-18T11:25:33;95998.91;;;28.22;26.85
6224;BME280;3145;42.726;23.342;2022-07-18T11:27:59;95984.75;;;28.55;25.96
6224;BME280;3145;42.726;23.342;2022-07-18T11:30:26;95940.34;;;28.70;25.65
6224;BME280;3145;42.726;23.342;2022-07-18T11:32:53;95988.34;;;29.24;26.06
6224;BME280;3145;42.726;23.342;2022-07-18T11:35:23;95979.97;;;29.70;24.67
6224;BME280;3145;42.726;23.342;2022-07-18T11:37:52;95972.66;;;29.99;24.95
6224;BME280;3145;42.726;23.342;2022-07-18T11:40:21;95966.75;;;28.74;25.76
6224;BME280;3145;42.726;23.342;2022-07-18T11:42:49;95983.16;;;28.14;26.46
6224;BME280;3145;42.726;23.342;2022-07-18T11:45:16;95972.56;;;28.08;25.80
6224;BME280;3145;42.726;23.342;2022-07-18T11:47:47;95982.56;;;28.32;26.39
6224;BME280;3145;42.726;23.342;2022-07-18T11:50:16;95971.66;;;28.67;25.18
6224;BME280;3145;42.726;23.342;2022-07-18T11:52:44;95965.34;;;28.87;25.48
6224;BME280;3145;42.726;23.342;2022-07-18T11:55:12;95965.56;;;29.05;26.53
6224;BME280;3145;42.726;23.342;2022-07-18T11:57:39;95923.72;;;28.81;24.74
6224;BME280;3145;42.726;23.342;2022-07-18T12:00:18;95966.47;;;29.39;24.94
6224;BME280;3145;42.726;23.342;2022-07-18T12:03:06;95936.66;;;29.63;25.07
6224;BME280;3145;42.726;23.342;2022-07-18T12:05:34;95963.25;;;30.15;25.33
6224;BME280;3145;42.726;23.342;2022-07-18T12:08:24;95965.59;;;30.31;24.56
6224;BME280;3145;42.726;23.342;2022-07-18T12:11:08;95966.25;;;30.18;24.86
6224;BME280;3145;42.726;23.342;2022-07-18T12:13:46;95957.69;;;29.52;26.85
6224;BME280;3145;42.726;23.342;2022-07-18T12:16:33;95958.69;;;29.18;25.97
6224;BME280;3145;42.726;23.342;2022-07-18T12:19:04;95947.75;;;28.39;27.41
6224;BME280;3145;42.726;23.342;2022-07-18T12:21:40;95937.75;;;28.20;27.50
6224;BME280;3145;42.726;23.342;2022-07-18T12:24:26;95954.00;;;28.50;28.34
6224;BME280;3145;42.726;23.342;2022-07-18T12:27:10;95945.72;;;28.95;27.09
6224;BME280;3145;42.726;23.342;2022-07-18T12:29:59;95928.50;;;29.14;27.62
6224;BME280;3145;42.726;23.342;2022-07-18T12:32:40;95940.34;;;29.38;27.79
6224;BME280;3145;42.726;23.342;2022-07-18T12:35:09;95950.22;;;29.73;26.70
6224;BME280;3145;42.726;23.342;2022-07-18T12:37:36;95950.75;;;29.26;27.07
6224;BME280;3145;42.726;23.342;2022-07-18T12:40:06;95940.13;;;28.36;28.38
6224;BME280;3145;42.726;23.342;2022-07-18T12:42:35;95936.06;;;28.49;28.60
6224;BME280;3145;42.726;23.342;2022-07-18T12:45:03;95946.13;;;28.48;28.82
6224;BME280;3145;42.726;23.342;2022-07-18T12:47:32;95951.06;;;28.01;27.23
6224;BME280;3145;42.726;23.342;2022-07-18T12:49:59;95937.75;;;28.10;27.58
6224;BME280;3145;42.726;23.342;2022-07-18T12:52:26;95946.97;;;28.24;27.71
6224;BME280;3145;42.726;23.342;2022-07-18T12:54:53;95944.25;;;27.74;28.01
6224;BME280;3145;42.726;23.342;2022-07-18T12:57:20;95943.44;;;28.13;28.34
6224;BME280;3145;42.726;23.342;2022-07-18T12:59:47;95928.78;;;27.94;28.37
6224;BME280;3145;42.726;23.342;2022-07-18T13:02:15;95902.13;;;28.11;27.36
6224;BME280;3145;42.726;23.342;2022-07-18T13:04:44;95938.19;;;28.67;26.48
6224;BME280;3145;42.726;23.342;2022-07-18T13:07:11;95923.09;;;28.94;27.26
6224;BME280;3145;42.726;23.342;2022-07-18T13:09:38;95922.84;;;28.96;26.28
6224;BME280;3145;42.726;23.342;2022-07-18T13:12:05;95931.81;;;29.06;26.84
6224;BME280;3145;42.726;23.342;2022-07-18T13:14:32;95925.03;;;28.89;27.03
6224;BME280;3145;42.726;23.342;2022-07-18T13:16:59;95927.41;;;28.07;27.44
6224;BME280;3145;42.726;23.342;2022-07-18T13:19:26;95914.59;;;28.17;27.79